createdAt,value
2023-01-22T00:00:11.857Z,3.20
2023-01-22T00:02:38.741Z,3.20
2023-01-22T00:05:06.686Z,3.20
2023-01-22T00:07:33.565Z,3.20
2023-01-22T00:10:00.437Z,3.20
2023-01-22T00:12:27.686Z,3.20
2023-01-22T00:14:54.601Z,3.20
2023-01-22T00:17:21.502Z,3.20
2023-01-22T00:19:48.300Z,3.20
2023-01-22T00:22:15.431Z,3.20
2023-01-22T00:24:42.258Z,3.20
2023-01-22T00:27:09.382Z,3.20
2023-01-22T00:29:36.128Z,3.30
2023-01-22T00:32:03.001Z,3.20
2023-01-22T00:34:30.145Z,3.30
2023-01-22T00:36:56.920Z,3.40
2023-01-22T00:39:23.712Z,3.40
2023-01-22T00:41:50.531Z,3.30
2023-01-22T00:44:17.332Z,3.30
2023-01-22T00:46:44.138Z,3.30
2023-01-22T00:49:12.435Z,3.20
2023-01-22T00:51:39.672Z,3.20
2023-01-22T00:54:06.929Z,3.10
2023-01-22T00:56:34.087Z,3.10
2023-01-22T00:59:00.910Z,3.20
2023-01-22T01:01:27.754Z,3.20
2023-01-22T01:03:54.534Z,3.20
2023-01-22T01:06:22.335Z,3.20
2023-01-22T01:08:50.313Z,3.20
2023-01-22T01:11:25.207Z,3.20
2023-01-22T01:13:52.798Z,3.20
2023-01-22T01:16:22.452Z,3.20
2023-01-22T01:18:49.690Z,3.20
2023-01-22T01:21:18.034Z,3.20
2023-01-22T01:23:45.856Z,3.30
2023-01-22T01:26:14.748Z,3.20
2023-01-22T01:28:42.516Z,3.20
2023-01-22T01:31:12.580Z,3.20
2023-01-22T01:33:40.391Z,3.20
2023-01-22T01:36:11.379Z,3.20
2023-01-22T01:38:38.201Z,3.20
2023-01-22T01:41:06.260Z,3.20
2023-01-22T01:43:34.359Z,3.30
2023-01-22T01:46:04.288Z,3.30
2023-01-22T01:48:39.040Z,3.30
2023-01-22T01:51:16.330Z,3.40
2023-01-22T01:53:45.536Z,3.50
2023-01-22T01:56:17.231Z,3.40
2023-01-22T01:58:46.120Z,3.30
2023-01-22T02:01:17.018Z,3.20
2023-01-22T02:03:45.986Z,3.30
2023-01-22T02:06:15.442Z,3.30
2023-01-22T02:08:45.572Z,3.40
2023-01-22T02:11:12.668Z,3.50
2023-01-22T02:13:44.323Z,3.40
2023-01-22T02:16:11.961Z,3.40
2023-01-22T02:18:39.005Z,3.40
2023-01-22T02:21:28.706Z,3.40
2023-01-22T02:23:55.671Z,3.50
2023-01-22T02:26:22.411Z,3.40
2023-01-22T02:28:49.300Z,3.40
2023-01-22T02:31:16.090Z,3.40
2023-01-22T02:33:42.891Z,3.50
2023-01-22T02:36:09.739Z,3.60
2023-01-22T02:38:36.498Z,3.50
2023-01-22T02:41:03.389Z,3.40
2023-01-22T02:43:30.163Z,3.40
2023-01-22T02:45:56.935Z,3.40
2023-01-22T02:48:23.712Z,3.50
2023-01-22T02:50:50.497Z,3.50
2023-01-22T02:53:17.278Z,3.50
2023-01-22T02:55:46.214Z,3.30
2023-01-22T02:58:13.170Z,3.30
2023-01-22T03:00:40.058Z,3.40
2023-01-22T03:03:07.830Z,3.40
2023-01-22T03:05:35.414Z,3.40
2023-01-22T03:08:02.349Z,3.30
2023-01-22T03:10:29.075Z,3.30
2023-01-22T03:13:14.341Z,3.20
2023-01-22T03:15:59.991Z,3.20
2023-01-22T03:18:45.217Z,3.30
2023-01-22T03:21:15.894Z,3.20
2023-01-22T03:23:53.912Z,3.20
2023-01-22T03:26:23.390Z,3.20
2023-01-22T03:28:51.289Z,3.30
2023-01-22T03:31:18.322Z,3.30
2023-01-22T03:33:45.153Z,3.20
2023-01-22T03:36:14.403Z,3.20
2023-01-22T03:38:41.414Z,3.30
2023-01-22T03:41:12.489Z,3.30
2023-01-22T03:43:39.453Z,3.30
2023-01-22T03:46:15.338Z,3.20
2023-01-22T03:48:42.361Z,3.20
2023-01-22T03:51:16.715Z,3.20
2023-01-22T03:53:44.729Z,3.20
2023-01-22T03:56:14.752Z,3.20
2023-01-22T03:58:41.535Z,3.20
2023-01-22T04:01:12.058Z,3.20
2023-01-22T04:03:39.340Z,3.20
2023-01-22T04:06:09.057Z,3.20
2023-01-22T04:08:36.698Z,3.20
2023-01-22T04:11:04.300Z,3.20
2023-01-22T04:13:32.398Z,3.20
2023-01-22T04:15:59.280Z,3.20
2023-01-22T04:18:26.306Z,3.30
2023-01-22T04:20:53.621Z,3.30
2023-01-22T04:23:22.005Z,3.40
2023-01-22T04:25:48.861Z,3.30
2023-01-22T04:28:16.658Z,3.30
2023-01-22T04:30:45.598Z,3.40
2023-01-22T04:33:13.118Z,3.40
2023-01-22T04:35:40.132Z,3.30
2023-01-22T04:38:08.003Z,3.30
2023-01-22T04:40:34.813Z,3.40
2023-01-22T04:43:05.923Z,3.40
2023-01-22T04:45:32.759Z,3.40
2023-01-22T04:48:00.218Z,3.30
2023-01-22T04:50:30.366Z,3.40
2023-01-22T04:52:57.849Z,3.50
2023-01-22T04:55:25.941Z,3.50
2023-01-22T04:57:57.245Z,3.50
2023-01-22T05:00:24.885Z,3.50
2023-01-22T05:02:56.599Z,3.50
2023-01-22T05:05:23.623Z,3.50
2023-01-22T05:07:50.420Z,3.50
2023-01-22T05:10:17.621Z,3.50
2023-01-22T05:12:44.522Z,3.40
2023-01-22T05:15:23.234Z,3.40
2023-01-22T05:17:51.829Z,3.40
2023-01-22T05:20:18.985Z,3.50
2023-01-22T05:22:46.214Z,3.60
2023-01-22T05:25:13.129Z,3.50
2023-01-22T05:27:39.943Z,3.60
2023-01-22T05:30:07.544Z,3.50
2023-01-22T05:32:34.371Z,3.50
2023-01-22T05:35:01.663Z,3.60
2023-01-22T05:37:28.560Z,3.60
2023-01-22T05:39:55.318Z,3.50
2023-01-22T05:42:22.161Z,3.60
2023-01-22T05:44:49.103Z,3.70
2023-01-22T05:47:16.467Z,3.60
2023-01-22T05:49:43.238Z,3.60
2023-01-22T05:52:12.776Z,3.60
2023-01-22T05:54:39.939Z,3.50
2023-01-22T05:57:07.021Z,3.50
2023-01-22T05:59:33.922Z,3.50
2023-01-22T06:02:01.279Z,3.40
2023-01-22T06:04:28.247Z,3.30
2023-01-22T06:06:55.006Z,3.40
2023-01-22T06:09:21.935Z,3.50
2023-01-22T06:11:48.774Z,3.40
2023-01-22T06:14:15.590Z,3.50
2023-01-22T06:16:42.495Z,3.30
2023-01-22T06:19:09.554Z,3.40
2023-01-22T06:21:36.361Z,3.40
2023-01-22T06:24:03.208Z,3.40
2023-01-22T06:26:29.942Z,3.40
2023-01-22T06:28:56.770Z,3.40
2023-01-22T06:31:23.699Z,3.50
2023-01-22T06:33:50.551Z,3.50
2023-01-22T06:36:17.321Z,3.40
2023-01-22T06:38:44.099Z,3.40
2023-01-22T06:41:11.063Z,3.40
2023-01-22T06:43:37.875Z,3.40
2023-01-22T06:46:05.442Z,3.40
2023-01-22T06:48:32.648Z,3.40
2023-01-22T06:51:00.365Z,3.40
2023-01-22T06:53:27.611Z,3.40
2023-01-22T06:55:54.657Z,3.50
2023-01-22T06:58:21.605Z,3.40
2023-01-22T07:00:48.455Z,3.20
2023-01-22T07:03:15.999Z,3.10
2023-01-22T07:05:42.888Z,3.00
2023-01-22T07:08:15.186Z,3.00
2023-01-22T07:10:42.537Z,3.10
2023-01-22T07:13:10.284Z,3.10
2023-01-22T07:15:37.214Z,3.10
2023-01-22T07:18:04.107Z,3.10
2023-01-22T07:20:30.880Z,3.20
2023-01-22T07:23:00.180Z,3.10
2023-01-22T07:25:27.998Z,3.10
2023-01-22T07:28:02.747Z,3.10
2023-01-22T07:30:30.039Z,3.10
2023-01-22T07:33:03.051Z,3.10
2023-01-22T07:35:30.438Z,3.10
2023-01-22T07:37:59.964Z,3.00
2023-01-22T07:40:27.442Z,3.00
2023-01-22T07:42:55.681Z,3.00
2023-01-22T07:45:24.663Z,3.00
2023-01-22T07:47:54.614Z,3.10
2023-01-22T07:50:22.532Z,3.00
2023-01-22T07:52:49.572Z,3.00
2023-01-22T07:55:16.790Z,2.90
2023-01-22T07:57:43.614Z,2.90
2023-01-22T08:00:11.463Z,2.90
2023-01-22T08:02:38.750Z,2.80
2023-01-22T08:05:12.501Z,2.80
2023-01-22T08:07:39.282Z,2.80
2023-01-22T08:10:06.565Z,2.80
2023-01-22T08:12:33.437Z,2.70
2023-01-22T08:15:00.143Z,2.80
2023-01-22T08:17:26.947Z,2.80
2023-01-22T08:19:53.717Z,2.70
2023-01-22T08:22:20.752Z,2.70
2023-01-22T08:24:47.508Z,2.60
2023-01-22T08:27:14.322Z,2.60
2023-01-22T08:29:41.131Z,2.70
2023-01-22T08:32:07.981Z,2.70
2023-01-22T08:34:34.790Z,2.70
2023-01-22T08:37:01.601Z,2.80
2023-01-22T08:39:28.412Z,2.90
2023-01-22T08:41:57.737Z,2.90
2023-01-22T08:44:25.389Z,3.00
2023-01-22T08:46:52.388Z,2.90
2023-01-22T08:49:21.421Z,3.00
2023-01-22T08:51:50.362Z,3.00
2023-01-22T08:54:18.462Z,3.00
2023-01-22T08:56:45.221Z,3.10
2023-01-22T08:59:12.036Z,3.20
2023-01-22T09:01:38.769Z,3.10
2023-01-22T09:04:09.758Z,3.10
2023-01-22T09:06:38.194Z,3.10
2023-01-22T09:09:06.220Z,3.20
2023-01-22T09:11:33.386Z,3.20
2023-01-22T09:14:00.394Z,3.30
2023-01-22T09:16:28.194Z,3.30
2023-01-22T09:18:55.059Z,3.20
2023-01-22T09:21:21.883Z,3.20
2023-01-22T09:23:48.681Z,3.20
2023-01-22T09:26:15.712Z,3.00
2023-01-22T09:28:42.652Z,3.10
2023-01-22T09:31:13.281Z,3.00
2023-01-22T09:33:40.181Z,3.10
2023-01-22T09:36:15.019Z,3.20
2023-01-22T09:38:43.208Z,3.10
2023-01-22T09:41:34.187Z,3.00
2023-01-22T09:44:18.601Z,2.90
2023-01-22T09:47:01.284Z,2.90
2023-01-22T09:49:42.268Z,3.00
2023-01-22T09:52:11.048Z,3.00
2023-01-22T09:54:38.246Z,2.90
2023-01-22T09:57:07.328Z,2.90
2023-01-22T09:59:45.825Z,2.90
2023-01-22T10:02:21.633Z,2.90
2023-01-22T10:04:52.941Z,3.00
2023-01-22T10:07:49.201Z,3.00
2023-01-22T10:10:22.221Z,2.90
2023-01-22T10:12:55.963Z,2.90
2023-01-22T10:15:24.444Z,2.90
2023-01-22T10:17:54.109Z,3.10
2023-01-22T10:20:21.764Z,3.00
2023-01-22T10:22:51.562Z,2.90
2023-01-22T10:25:18.540Z,2.90
2023-01-22T10:27:46.967Z,2.80
2023-01-22T10:30:22.702Z,3.00
2023-01-22T10:33:00.227Z,2.90
2023-01-22T10:35:27.171Z,2.90
2023-01-22T10:37:55.967Z,3.00
2023-01-22T10:40:30.999Z,3.00
2023-01-22T10:43:03.325Z,3.00
2023-01-22T10:45:30.528Z,3.00
2023-01-22T10:48:16.710Z,3.00
2023-01-22T10:50:45.286Z,3.00
2023-01-22T10:53:30.170Z,2.90
2023-01-22T10:55:59.349Z,2.90
2023-01-22T10:58:33.228Z,2.80
2023-01-22T11:01:05.548Z,2.80
2023-01-22T11:03:38.182Z,2.70
2023-01-22T11:06:12.900Z,2.70
2023-01-22T11:08:56.535Z,2.70
2023-01-22T11:12:15.743Z,2.70
2023-01-22T11:14:42.988Z,2.70
2023-01-22T11:17:29.488Z,2.70
2023-01-22T11:20:02.727Z,2.60
2023-01-22T11:23:06.992Z,2.60
2023-01-22T11:25:43.868Z,2.50
2023-01-22T11:28:44.112Z,2.60
2023-01-22T11:31:37.357Z,2.60
2023-01-22T11:34:10.262Z,2.70
2023-01-22T11:36:40.477Z,2.50
2023-01-22T11:39:45.752Z,2.60
2023-01-22T11:42:33.580Z,2.50
2023-01-22T11:45:23.199Z,2.40
2023-01-22T11:48:12.277Z,2.40
2023-01-22T11:50:59.186Z,2.40
2023-01-22T11:53:54.459Z,2.30
2023-01-22T11:56:39.299Z,2.30
2023-01-22T11:59:26.412Z,2.20
2023-01-22T12:02:24.470Z,2.10
2023-01-22T12:04:57.315Z,2.20
2023-01-22T12:07:26.985Z,2.20
2023-01-22T12:10:27.503Z,2.10
2023-01-22T12:13:23.507Z,2.10
2023-01-22T12:15:59.256Z,2.10
2023-01-22T12:18:48.014Z,2.10
2023-01-22T12:22:08.351Z,1.90
2023-01-22T12:24:44.666Z,1.90
2023-01-22T12:27:29.249Z,1.90
2023-01-22T12:30:30.122Z,1.90
2023-01-22T12:33:02.252Z,1.80
2023-01-22T12:35:31.668Z,1.80
2023-01-22T12:38:48.523Z,1.80
2023-01-22T12:41:46.774Z,1.90
2023-01-22T12:44:37.807Z,1.80
2023-01-22T12:47:19.365Z,1.80
2023-01-22T12:49:51.726Z,1.70
2023-01-22T12:52:35.350Z,1.70
2023-01-22T12:55:05.266Z,1.80
2023-01-22T12:57:41.859Z,1.70
2023-01-22T13:00:46.081Z,1.80
2023-01-22T13:03:33.004Z,1.80
2023-01-22T13:06:01.993Z,1.80
2023-01-22T13:08:43.229Z,1.80
2023-01-22T13:11:13.890Z,1.80
2023-01-22T13:13:52.200Z,1.80
2023-01-22T13:16:21.419Z,1.80
2023-01-22T13:18:53.398Z,1.80
2023-01-22T13:21:38.297Z,1.70
2023-01-22T13:24:17.432Z,1.60
2023-01-22T13:27:07.047Z,1.70
2023-01-22T13:29:37.876Z,1.60
2023-01-22T13:32:16.437Z,1.60
2023-01-22T13:34:43.275Z,1.50
2023-01-22T13:37:28.511Z,1.50
2023-01-22T13:39:55.293Z,1.50
2023-01-22T13:42:24.673Z,1.50
2023-01-22T13:44:52.276Z,1.40
2023-01-22T13:47:34.162Z,1.50
2023-01-22T13:50:02.574Z,1.40
2023-01-22T13:52:29.677Z,1.30
2023-01-22T13:55:05.709Z,1.30
2023-01-22T13:57:32.775Z,1.40
2023-01-22T14:00:01.369Z,1.40
2023-01-22T14:02:34.656Z,1.40
2023-01-22T14:05:02.135Z,1.40
2023-01-22T14:07:30.250Z,1.40
2023-01-22T14:09:59.043Z,1.50
2023-01-22T14:12:27.349Z,1.40
2023-01-22T14:14:54.595Z,1.40
2023-01-22T14:17:24.357Z,1.40
2023-01-22T14:19:51.580Z,1.50
2023-01-22T14:22:18.722Z,1.50
2023-01-22T14:24:45.591Z,1.40
2023-01-22T14:27:12.381Z,1.50
2023-01-22T14:29:39.372Z,1.50
2023-01-22T14:32:06.271Z,1.50
2023-01-22T14:34:33.064Z,1.50
2023-01-22T14:36:59.853Z,1.40
2023-01-22T14:39:26.696Z,1.30
2023-01-22T14:41:53.486Z,1.30
2023-01-22T14:44:20.380Z,1.30
2023-01-22T14:46:47.189Z,1.30
2023-01-22T14:49:14.049Z,1.20
2023-01-22T14:51:41.199Z,1.10
2023-01-22T14:56:52.263Z,1.10
2023-01-22T14:59:20.806Z,1.10
2023-01-22T15:01:47.851Z,1.10
2023-01-22T15:04:14.770Z,1.10
2023-01-22T15:06:41.771Z,1.00
2023-01-22T15:09:08.623Z,1.10
2023-01-22T15:11:35.403Z,1.10
2023-01-22T15:14:04.698Z,1.20
2023-01-22T15:16:32.853Z,1.10
2023-01-22T15:18:59.681Z,1.20
2023-01-22T15:21:26.550Z,1.20
2023-01-22T15:23:53.312Z,1.20
2023-01-22T15:26:24.901Z,1.10
2023-01-22T15:28:51.862Z,1.10
2023-01-22T15:31:18.937Z,1.00
2023-01-22T15:33:46.061Z,1.00
2023-01-22T15:36:12.867Z,1.10
2023-01-22T15:38:39.632Z,1.00
2023-01-22T15:41:28.038Z,0.90
2023-01-22T15:44:00.161Z,0.80
2023-01-22T15:46:32.208Z,0.70
2023-01-22T15:49:00.011Z,0.80
2023-01-22T15:51:28.260Z,0.70
2023-01-22T15:53:57.765Z,0.70
2023-01-22T15:56:26.893Z,0.70
2023-01-22T15:58:54.204Z,0.60
2023-01-22T16:01:22.503Z,0.60
2023-01-22T16:03:49.807Z,0.60
2023-01-22T16:06:19.303Z,0.60
2023-01-22T16:08:47.111Z,0.50
2023-01-22T16:11:15.199Z,0.50
2023-01-22T16:13:42.699Z,0.50
2023-01-22T16:16:33.603Z,0.40
2023-01-22T16:19:01.900Z,0.40
2023-01-22T16:21:29.280Z,0.40
2023-01-22T16:23:58.663Z,0.40
2023-01-22T16:26:30.809Z,0.40
2023-01-22T16:28:59.635Z,0.40
2023-01-22T16:31:30.605Z,0.30
2023-01-22T16:33:59.977Z,0.10
2023-01-22T16:36:29.780Z,0.00
2023-01-22T16:38:56.673Z,0.10
2023-01-22T16:41:36.820Z,0.00
2023-01-22T16:44:16.469Z,0.00
2023-01-22T16:46:48.493Z,0.00
2023-01-22T16:49:18.932Z,0.00
2023-01-22T16:51:48.693Z,-0.10
2023-01-22T16:54:29.954Z,-0.10
2023-01-22T16:56:59.002Z,-0.10
2023-01-22T16:59:27.312Z,-0.10
2023-01-22T17:01:56.020Z,-0.10
2023-01-22T17:04:23.199Z,0.00
2023-01-22T17:07:15.377Z,0.00
2023-01-22T17:09:47.593Z,0.00
2023-01-22T17:12:14.755Z,-0.10
2023-01-22T17:14:41.664Z,-0.10
2023-01-22T17:17:09.231Z,-0.10
2023-01-22T17:19:36.616Z,-0.10
2023-01-22T17:22:04.147Z,-0.10
2023-01-22T17:24:31.842Z,-0.30
2023-01-22T17:27:04.971Z,-0.30
2023-01-22T17:29:33.655Z,-0.20
2023-01-22T17:32:02.223Z,-0.30
2023-01-22T17:34:29.286Z,-0.30
2023-01-22T17:39:50.983Z,-0.30
2023-01-22T17:42:18.686Z,-0.30
2023-01-22T17:44:45.403Z,-0.30
2023-01-22T17:47:12.713Z,-0.20
2023-01-22T17:49:39.736Z,-0.20
2023-01-22T17:52:09.247Z,-0.30
2023-01-22T17:54:36.345Z,-0.30
2023-01-22T17:57:05.088Z,-0.20
2023-01-22T17:59:32.135Z,-0.20
2023-01-22T18:02:00.004Z,-0.30
2023-01-22T18:04:27.182Z,-0.20
2023-01-22T18:06:54.186Z,-0.20
2023-01-22T18:09:22.039Z,-0.30
2023-01-22T18:11:49.083Z,-0.30
2023-01-22T18:14:21.690Z,-0.30
2023-01-22T18:17:14.114Z,-0.30
2023-01-22T18:19:40.898Z,-0.30
2023-01-22T18:22:07.918Z,-0.40
2023-01-22T18:24:36.479Z,-0.40
2023-01-22T18:27:03.327Z,-0.40
2023-01-22T18:29:30.127Z,-0.30
2023-01-22T18:31:56.998Z,-0.30
2023-01-22T18:34:24.113Z,-0.20
2023-01-22T18:36:51.026Z,-0.20
2023-01-22T18:39:19.034Z,-0.40
2023-01-22T18:41:47.632Z,-0.30
2023-01-22T18:44:16.235Z,-0.40
2023-01-22T18:46:47.565Z,-0.40
2023-01-22T18:49:17.588Z,-0.40
2023-01-22T18:51:45.794Z,-0.40
2023-01-22T18:54:12.877Z,-0.40
2023-01-22T18:56:40.347Z,-0.30
2023-01-22T18:59:07.420Z,-0.30
2023-01-22T19:01:38.264Z,-0.40
2023-01-22T19:04:08.094Z,-0.40
2023-01-22T19:06:38.575Z,-0.40
2023-01-22T19:09:08.939Z,-0.40
2023-01-22T19:11:38.466Z,-0.30
2023-01-22T19:14:07.220Z,-0.40
2023-01-22T19:16:34.165Z,-0.40
2023-01-22T19:19:04.129Z,-0.60
2023-01-22T19:21:31.525Z,-0.60
2023-01-22T19:24:00.382Z,-0.60
2023-01-22T19:26:33.677Z,-0.60
2023-01-22T19:29:06.340Z,-0.60
2023-01-22T19:31:36.097Z,-0.70
2023-01-22T19:34:04.051Z,-0.80
2023-01-22T19:36:33.635Z,-0.70
2023-01-22T19:39:05.376Z,-0.70
2023-01-22T19:41:32.653Z,-0.60
2023-01-22T19:44:01.524Z,-0.50
2023-01-22T19:46:28.889Z,-0.50
2023-01-22T19:48:56.424Z,-0.60
2023-01-22T19:51:24.652Z,-0.60
2023-01-22T19:53:51.454Z,-0.60
2023-01-22T19:56:21.224Z,-0.60
2023-01-22T19:58:48.954Z,-0.60
2023-01-22T20:01:16.747Z,-0.60
2023-01-22T20:03:44.324Z,-0.60
2023-01-22T20:06:13.367Z,-0.70
2023-01-22T20:08:40.537Z,-0.60
2023-01-22T20:11:09.219Z,-0.70
2023-01-22T20:13:37.540Z,-0.60
2023-01-22T20:16:05.264Z,-0.60
2023-01-22T20:18:33.034Z,-0.60
2023-01-22T20:21:01.800Z,-0.60
2023-01-22T20:23:29.754Z,-0.50
2023-01-22T20:25:58.788Z,-0.50
2023-01-22T20:28:25.955Z,-0.60
2023-01-22T20:31:01.143Z,-0.50
2023-01-22T20:33:28.826Z,-0.50
2023-01-22T20:35:57.681Z,-0.50
2023-01-22T20:38:24.948Z,-0.50
2023-01-22T20:40:52.175Z,-0.40
2023-01-22T20:43:19.938Z,-0.50
2023-01-22T20:46:01.028Z,-0.50
2023-01-22T20:48:29.780Z,-0.50
2023-01-22T20:50:57.088Z,-0.60
2023-01-22T20:53:24.808Z,-0.50
2023-01-22T20:56:03.113Z,-0.50
2023-01-22T20:58:30.836Z,-0.40
2023-01-22T21:01:07.733Z,-0.40
2023-01-22T21:03:35.018Z,-0.30
2023-01-22T21:06:04.350Z,-0.30
2023-01-22T21:08:31.893Z,-0.30
2023-01-22T21:11:00.373Z,-0.40
2023-01-22T21:13:27.993Z,-0.30
2023-01-22T21:15:55.299Z,-0.50
2023-01-22T21:18:23.395Z,-0.50
2023-01-22T21:20:50.399Z,-0.40
2023-01-22T21:23:17.716Z,-0.50
2023-01-22T21:25:44.680Z,-0.60
2023-01-22T21:28:11.473Z,-0.60
2023-01-22T21:30:39.490Z,-0.60
2023-01-22T21:33:06.532Z,-0.50
2023-01-22T21:35:33.414Z,-0.50
2023-01-22T21:38:00.176Z,-0.30
2023-01-22T21:40:26.920Z,-0.30
2023-01-22T21:43:12.534Z,-0.40
2023-01-22T21:46:01.358Z,-0.40
2023-01-22T21:48:29.435Z,-0.50
2023-01-22T21:50:56.233Z,-0.60
2023-01-22T21:53:23.107Z,-0.60
2023-01-22T21:55:53.901Z,-0.50
2023-01-22T21:58:21.021Z,-0.60
2023-01-22T22:00:48.002Z,-0.60
2023-01-22T22:03:16.008Z,-0.60
2023-01-22T22:05:43.088Z,-0.70
2023-01-22T22:08:09.887Z,-0.80
2023-01-22T22:10:36.777Z,-0.80
2023-01-22T22:13:03.989Z,-0.80
2023-01-22T22:15:30.828Z,-0.70
2023-01-22T22:17:57.632Z,-0.70
2023-01-22T22:20:24.420Z,-0.60
2023-01-22T22:22:51.249Z,-0.70
2023-01-22T22:25:18.165Z,-0.80
2023-01-22T22:27:45.072Z,-0.90
2023-01-22T22:30:12.471Z,-0.90
2023-01-22T22:32:39.332Z,-0.90
2023-01-22T22:35:06.555Z,-1.00
2023-01-22T22:37:33.387Z,-1.00
2023-01-22T22:40:00.143Z,-1.00
2023-01-22T22:42:27.694Z,-1.00
2023-01-22T22:44:54.470Z,-1.00
2023-01-22T22:47:21.363Z,-1.00
2023-01-22T22:49:48.143Z,-0.90
2023-01-22T22:52:15.085Z,-0.90
2023-01-22T22:54:41.946Z,-1.00
2023-01-22T22:57:08.728Z,-1.10
2023-01-22T22:59:35.473Z,-1.00
2023-01-22T23:02:02.250Z,-1.00
2023-01-22T23:04:29.117Z,-1.10
2023-01-22T23:06:55.966Z,-1.10
2023-01-22T23:09:22.888Z,-1.20
2023-01-22T23:11:53.322Z,-1.20
2023-01-22T23:14:20.280Z,-1.20
2023-01-22T23:16:47.872Z,-1.20
2023-01-22T23:19:26.797Z,-1.10
2023-01-22T23:21:56.166Z,-1.00
2023-01-22T23:24:23.035Z,-1.10
2023-01-22T23:26:50.393Z,-1.00
2023-01-22T23:29:20.305Z,-1.00
2023-01-22T23:31:49.197Z,-0.90
2023-01-22T23:34:18.063Z,-0.80
2023-01-22T23:36:46.567Z,-0.90
2023-01-22T23:39:15.553Z,-0.90
2023-01-22T23:41:42.923Z,-0.90
2023-01-22T23:44:10.002Z,-0.90
2023-01-22T23:46:36.901Z,-0.90
2023-01-22T23:49:04.594Z,-0.90
2023-01-22T23:51:31.668Z,-1.00
2023-01-22T23:53:58.623Z,-0.90
2023-01-22T23:56:32.176Z,-1.00
2023-01-22T23:58:59.733Z,-1.00
